createdAt,value
2022-08-09T00:00:06.157Z,9.13
2022-08-09T00:02:49.259Z,9.43
2022-08-09T00:06:18.564Z,8.83
2022-08-09T00:08:13.106Z,8.90
2022-08-09T00:10:59.953Z,8.27
2022-08-09T00:13:28.395Z,6.77
2022-08-09T00:16:02.912Z,9.50
2022-08-09T00:18:34.824Z,6.63
2022-08-09T00:21:05.086Z,6.97
2022-08-09T00:23:57.513Z,7.40
2022-08-09T00:26:33.984Z,11.20
2022-08-09T00:29:12.339Z,7.50
2022-08-09T00:32:00.919Z,7.00
2022-08-09T00:34:32.583Z,10.23
2022-08-09T00:37:04.287Z,10.23
2022-08-09T00:40:12.113Z,7.73
2022-08-09T00:44:15.309Z,7.63
2022-08-09T00:45:16.075Z,7.40
2022-08-09T00:47:44.189Z,11.63
2022-08-09T00:50:14.637Z,6.30
2022-08-09T00:52:44.147Z,9.17
2022-08-09T00:55:32.741Z,10.17
2022-08-09T00:58:02.920Z,9.50
2022-08-09T01:00:35.348Z,8.03
2022-08-09T01:03:18.606Z,6.87
2022-08-09T01:05:54.138Z,8.43
2022-08-09T01:08:48.916Z,6.90
2022-08-09T01:11:26.304Z,8.83
2022-08-09T01:14:01.762Z,9.87
2022-08-09T01:16:49.562Z,8.50
2022-08-09T01:19:39.647Z,5.83
2022-08-09T01:22:45.047Z,6.03
2022-08-09T01:25:41.531Z,6.33
2022-08-09T01:28:11.393Z,7.37
2022-08-09T01:30:51.849Z,11.47
2022-08-09T01:33:25.609Z,9.20
2022-08-09T01:36:07.597Z,9.93
2022-08-09T01:38:44.327Z,8.23
2022-08-09T01:41:25.857Z,8.87
2022-08-09T01:43:57.949Z,7.60
2022-08-09T01:46:29.431Z,7.00
2022-08-09T01:49:10.078Z,6.97
2022-08-09T01:51:44.329Z,10.10
2022-08-09T01:54:23.429Z,9.27
2022-08-09T01:56:55.772Z,9.03
2022-08-09T01:59:24.712Z,8.03
2022-08-09T02:02:03.860Z,10.47
2022-08-09T02:04:33.863Z,8.20
2022-08-09T02:07:18.058Z,7.07
2022-08-09T02:10:07.104Z,9.17
2022-08-09T02:12:41.778Z,8.13
2022-08-09T02:15:16.887Z,10.87
2022-08-09T02:18:01.155Z,7.27
2022-08-09T02:20:44.035Z,8.90
2022-08-09T02:23:25.413Z,8.80
2022-08-09T02:26:05.174Z,9.60
2022-08-09T02:28:35.843Z,10.20
2022-08-09T02:31:12.701Z,8.53
2022-08-09T02:34:06.788Z,9.73
2022-08-09T02:36:41.985Z,8.97
2022-08-09T02:39:33.712Z,10.43
2022-08-09T02:42:08.318Z,8.13
2022-08-09T02:44:38.666Z,8.73
2022-08-09T02:47:09.794Z,11.03
2022-08-09T02:49:55.417Z,7.67
2022-08-09T02:52:40.446Z,7.77
2022-08-09T02:55:15.207Z,9.03
2022-08-09T02:58:00.719Z,10.27
2022-08-09T03:00:47.982Z,9.47
2022-08-09T03:04:12.551Z,9.37
2022-08-09T03:06:18.586Z,8.10
2022-08-09T03:08:51.012Z,9.73
2022-08-09T03:12:04.649Z,10.03
2022-08-09T03:14:11.912Z,7.80
2022-08-09T03:16:45.309Z,8.27
2022-08-09T03:19:59.001Z,7.43
2022-08-09T03:22:12.188Z,7.77
2022-08-09T03:25:06.503Z,7.53
2022-08-09T03:27:47.109Z,8.43
2022-08-09T03:30:29.351Z,12.33
2022-08-09T03:33:05.546Z,8.80
2022-08-09T03:36:11.699Z,9.33
2022-08-09T03:38:28.660Z,7.93
2022-08-09T03:40:58.451Z,11.03
2022-08-09T03:43:32.018Z,7.47
2022-08-09T03:46:03.328Z,10.37
2022-08-09T03:48:51.452Z,11.07
2022-08-09T03:51:56.535Z,8.53
2022-08-09T03:54:11.593Z,13.30
2022-08-09T03:56:41.873Z,7.53
2022-08-09T03:59:27.096Z,10.03
2022-08-09T04:01:59.283Z,9.83
2022-08-09T04:04:32.533Z,9.83
2022-08-09T04:07:08.669Z,9.23
2022-08-09T04:09:48.214Z,12.03
2022-08-09T04:12:33.012Z,11.57
2022-08-09T04:15:11.166Z,13.50
2022-08-09T04:17:43.646Z,12.20
2022-08-09T04:20:13.152Z,14.20
2022-08-09T04:22:44.191Z,14.87
2022-08-09T04:25:13.752Z,15.50
2022-08-09T04:27:42.228Z,17.20
2022-08-09T04:30:23.311Z,11.17
2022-08-09T04:32:54.083Z,16.33
2022-08-09T04:35:21.805Z,16.10
2022-08-09T04:37:50.164Z,13.47
2022-08-09T04:40:28.897Z,13.73
2022-08-09T04:43:06.899Z,25.70
2022-08-09T04:45:36.260Z,13.50
2022-08-09T04:48:21.163Z,14.53
2022-08-09T04:50:50.904Z,14.73
2022-08-09T04:53:18.441Z,13.23
2022-08-09T04:55:57.426Z,14.53
2022-08-09T04:58:31.733Z,16.93
2022-08-09T05:01:03.674Z,25.17
2022-08-09T05:03:44.194Z,16.30
2022-08-09T05:06:26.827Z,13.07
2022-08-09T05:09:00.310Z,15.33
2022-08-09T05:11:35.481Z,15.17
2022-08-09T05:14:09.557Z,13.07
2022-08-09T05:16:58.215Z,14.40
2022-08-09T05:19:31.926Z,21.57
2022-08-09T05:22:28.280Z,21.27
2022-08-09T05:25:02.938Z,13.63
2022-08-09T05:27:30.248Z,12.17
2022-08-09T05:29:58.953Z,12.47
2022-08-09T05:32:30.099Z,11.97
2022-08-09T05:34:57.567Z,13.87
2022-08-09T05:37:26.385Z,13.87
2022-08-09T05:39:54.795Z,17.57
2022-08-09T05:42:28.060Z,16.27
2022-08-09T05:44:56.711Z,14.60
2022-08-09T05:47:27.150Z,10.97
2022-08-09T05:50:24.135Z,13.07
2022-08-09T05:52:53.323Z,15.67
2022-08-09T05:55:24.014Z,14.17
2022-08-09T05:57:56.469Z,11.17
2022-08-09T06:00:29.826Z,14.30
2022-08-09T06:02:58.867Z,12.57
2022-08-09T06:05:31.362Z,8.47
2022-08-09T06:08:19.754Z,11.00
2022-08-09T06:10:56.230Z,11.17
2022-08-09T06:13:28.685Z,6.97
2022-08-09T06:16:01.678Z,7.57
2022-08-09T06:18:32.829Z,7.17
2022-08-09T06:21:01.504Z,6.60
2022-08-09T06:23:57.302Z,8.03
2022-08-09T06:26:22.140Z,9.30
2022-08-09T06:28:59.327Z,8.70
2022-08-09T06:31:31.579Z,7.87
2022-08-09T06:34:07.330Z,8.13
2022-08-09T06:36:35.002Z,6.20
2022-08-09T06:39:08.883Z,6.40
2022-08-09T06:42:07.821Z,9.07
2022-08-09T06:44:27.629Z,7.47
2022-08-09T06:46:55.641Z,10.47
2022-08-09T06:49:44.894Z,5.63
2022-08-09T06:52:15.651Z,7.53
2022-08-09T06:54:44.715Z,6.70
2022-08-09T06:57:12.142Z,6.30
2022-08-09T07:00:54.584Z,6.37
2022-08-09T07:02:34.018Z,6.30
2022-08-09T07:05:04.508Z,6.27
2022-08-09T07:08:00.361Z,4.43
2022-08-09T07:10:29.332Z,5.00
2022-08-09T07:12:58.353Z,6.23
2022-08-09T07:15:54.014Z,6.60
2022-08-09T07:18:15.162Z,6.60
2022-08-09T07:20:44.407Z,5.83
2022-08-09T07:23:18.147Z,4.37
2022-08-09T07:25:47.610Z,4.73
2022-08-09T07:28:26.349Z,3.87
2022-08-09T07:30:55.646Z,6.60
2022-08-09T07:33:23.278Z,3.63
2022-08-09T07:35:53.825Z,3.90
2022-08-09T07:38:23.263Z,3.57
2022-08-09T07:41:08.349Z,3.37
2022-08-09T07:43:41.057Z,3.77
2022-08-09T07:46:10.707Z,3.27
2022-08-09T07:48:44.572Z,4.17
2022-08-09T07:52:04.979Z,3.20
2022-08-09T07:54:08.702Z,3.63
2022-08-09T07:56:45.074Z,3.60
2022-08-09T07:59:25.426Z,3.63
2022-08-09T08:02:06.534Z,3.10
2022-08-09T08:04:34.311Z,3.67
2022-08-09T08:07:15.551Z,3.80
2022-08-09T08:09:54.935Z,4.53
2022-08-09T08:12:32.907Z,3.90
2022-08-09T08:15:00.318Z,3.60
2022-08-09T08:17:52.572Z,4.53
2022-08-09T08:20:15.696Z,9.67
2022-08-09T08:22:43.336Z,4.80
2022-08-09T08:25:15.783Z,4.57
2022-08-09T08:27:43.356Z,4.50
2022-08-09T08:30:18.547Z,4.17
2022-08-09T08:32:53.553Z,7.77
2022-08-09T08:35:22.305Z,4.03
2022-08-09T08:38:04.654Z,6.37
2022-08-09T08:40:38.750Z,8.30
2022-08-09T08:43:13.383Z,4.23
2022-08-09T08:46:04.111Z,5.30
2022-08-09T08:48:51.223Z,5.63
2022-08-09T08:51:23.112Z,4.33
2022-08-09T08:54:03.716Z,4.47
2022-08-09T08:56:39.596Z,4.13
2022-08-09T08:59:19.299Z,3.67
2022-08-09T09:01:52.953Z,8.23
2022-08-09T09:04:31.118Z,4.33
2022-08-09T09:07:09.121Z,6.40
2022-08-09T09:10:01.489Z,4.03
2022-08-09T09:12:32.050Z,9.37
2022-08-09T09:15:05.704Z,5.23
2022-08-09T09:17:48.331Z,6.17
2022-08-09T09:20:21.200Z,5.90
2022-08-09T09:23:01.594Z,4.20
2022-08-09T09:26:04.536Z,6.70
2022-08-09T09:29:01.670Z,6.37
2022-08-09T09:32:03.828Z,8.50
2022-08-09T09:34:14.205Z,5.00
2022-08-09T09:36:51.191Z,7.30
2022-08-09T09:39:55.093Z,4.63
2022-08-09T09:42:29.622Z,4.23
2022-08-09T09:44:59.220Z,8.10
2022-08-09T09:47:28.532Z,5.60
2022-08-09T09:50:14.333Z,2.30
2022-08-09T09:52:56.056Z,5.27
2022-08-09T09:55:32.175Z,7.77
2022-08-09T09:58:19.137Z,6.03
2022-08-09T10:00:52.671Z,5.57
2022-08-09T10:03:57.096Z,3.13
2022-08-09T10:06:42.638Z,4.70
2022-08-09T10:09:22.342Z,4.60
2022-08-09T10:12:07.701Z,4.07
2022-08-09T10:14:47.753Z,4.10
2022-08-09T10:17:39.427Z,4.20
2022-08-09T10:20:14.921Z,8.97
2022-08-09T10:22:45.062Z,4.57
2022-08-09T10:25:14.500Z,3.13
2022-08-09T10:27:56.141Z,4.00
2022-08-09T10:34:07.863Z,4.77
2022-08-09T10:36:04.888Z,5.87
2022-08-09T10:38:34.028Z,4.27
2022-08-09T10:41:20.593Z,5.03
2022-08-09T10:43:59.381Z,6.93
2022-08-09T10:46:54.720Z,3.23
2022-08-09T10:49:50.230Z,4.63
2022-08-09T10:52:46.268Z,3.13
2022-08-09T10:55:24.562Z,4.27
2022-08-09T10:57:55.632Z,4.33
2022-08-09T11:00:34.341Z,3.93
2022-08-09T11:03:19.531Z,3.43
2022-08-09T11:06:15.571Z,2.63
2022-08-09T11:08:51.119Z,4.27
2022-08-09T11:11:20.895Z,3.27
2022-08-09T11:14:28.067Z,4.50
2022-08-09T11:16:56.533Z,4.67
2022-08-09T11:20:10.263Z,4.83
2022-08-09T11:22:42.001Z,3.70
2022-08-09T11:25:15.658Z,4.97
2022-08-09T11:28:03.821Z,5.07
2022-08-09T11:30:38.065Z,3.30
2022-08-09T11:33:17.514Z,2.40
2022-08-09T11:35:51.729Z,3.17
2022-08-09T11:38:32.570Z,2.70
2022-08-09T11:41:16.595Z,3.63
2022-08-09T11:43:48.962Z,5.17
2022-08-09T11:46:26.784Z,4.10
2022-08-09T11:49:00.318Z,4.00
2022-08-09T11:53:02.395Z,3.43
2022-08-09T11:54:27.951Z,3.40
2022-08-09T11:57:47.668Z,2.80
2022-08-09T12:00:28.943Z,4.43
2022-08-09T12:02:57.965Z,2.63
2022-08-09T12:05:37.652Z,2.80
2022-08-09T12:08:12.572Z,2.67
2022-08-09T12:10:59.321Z,3.20
2022-08-09T12:14:10.013Z,2.63
2022-08-09T12:16:38.579Z,4.67
2022-08-09T12:19:09.589Z,2.63
2022-08-09T12:21:48.748Z,2.97
2022-08-09T12:24:25.270Z,3.00
2022-08-09T12:29:00.252Z,3.80
2022-08-09T12:30:00.018Z,4.83
2022-08-09T12:32:31.941Z,3.33
2022-08-09T12:35:04.729Z,4.93
2022-08-09T12:37:49.777Z,3.30
2022-08-09T12:40:19.248Z,3.13
2022-08-09T12:42:50.633Z,3.30
2022-08-09T12:45:34.899Z,2.67
2022-08-09T12:48:19.867Z,4.47
2022-08-09T12:50:59.237Z,2.97
2022-08-09T12:53:44.799Z,3.00
2022-08-09T12:56:39.382Z,2.70
2022-08-09T12:59:21.773Z,2.93
2022-08-09T13:02:09.416Z,2.50
2022-08-09T13:04:38.706Z,2.50
2022-08-09T13:07:19.816Z,3.60
2022-08-09T13:09:55.951Z,3.90
2022-08-09T13:12:29.281Z,3.17
2022-08-09T13:15:09.610Z,2.97
2022-08-09T13:18:03.545Z,4.27
2022-08-09T13:21:03.935Z,2.77
2022-08-09T13:24:17.507Z,2.77
2022-08-09T13:26:37.013Z,2.83
2022-08-09T13:29:17.548Z,2.50
2022-08-09T13:32:13.831Z,4.57
2022-08-09T13:34:47.314Z,4.57
2022-08-09T13:37:24.804Z,2.77
2022-08-09T13:41:50.973Z,5.10
2022-08-09T13:42:52.113Z,2.70
2022-08-09T13:45:20.204Z,2.97
2022-08-09T13:47:53.723Z,2.93
2022-08-09T13:50:30.282Z,2.67
2022-08-09T13:52:59.359Z,3.47
2022-08-09T13:55:30.648Z,2.50
2022-08-09T14:01:56.407Z,3.07
2022-08-09T14:04:31.055Z,2.60
2022-08-09T14:07:30.251Z,3.63
2022-08-09T14:10:53.396Z,2.50
2022-08-09T14:22:14.057Z,4.00
2022-08-09T14:27:24.489Z,3.40
2022-08-09T14:30:35.524Z,3.27
2022-08-09T14:32:41.649Z,5.80
2022-08-09T14:35:10.210Z,4.63
2022-08-09T14:38:01.564Z,4.37
2022-08-09T14:41:00.784Z,8.60
2022-08-09T14:43:18.521Z,4.07
2022-08-09T14:46:54.054Z,3.47
2022-08-09T14:48:33.311Z,5.30
2022-08-09T14:51:00.313Z,3.80
2022-08-09T14:53:27.465Z,3.50
2022-08-09T14:55:54.533Z,3.40
2022-08-09T14:58:21.814Z,7.47
2022-08-09T15:00:51.199Z,3.63
2022-08-09T15:03:20.914Z,3.50
2022-08-09T15:05:51.256Z,4.27
2022-08-09T15:08:23.660Z,3.57
2022-08-09T15:11:00.919Z,5.20
2022-08-09T15:13:47.865Z,4.00
2022-08-09T15:16:17.127Z,3.90
2022-08-09T15:18:44.338Z,6.37
2022-08-09T15:21:58.872Z,3.10
2022-08-09T15:24:12.395Z,3.50
2022-08-09T15:26:45.326Z,3.40
2022-08-09T15:30:56.077Z,7.77
2022-08-09T15:32:00.996Z,4.90
2022-08-09T15:34:34.755Z,3.33
2022-08-09T15:37:24.331Z,3.50
2022-08-09T15:40:11.745Z,3.50
2022-08-09T15:42:40.566Z,2.90
2022-08-09T15:45:15.406Z,3.90
2022-08-09T15:48:02.575Z,3.40
2022-08-09T15:50:39.227Z,3.70
2022-08-09T15:53:32.700Z,6.00
2022-08-09T15:56:21.538Z,3.70
2022-08-09T15:58:46.360Z,3.87
2022-08-09T16:01:14.649Z,3.57
2022-08-09T16:03:42.325Z,3.20
2022-08-09T16:06:27.230Z,2.97
2022-08-09T16:09:01.252Z,5.33
2022-08-09T16:11:30.742Z,2.77
2022-08-09T16:14:04.879Z,3.83
2022-08-09T16:16:32.974Z,4.03
2022-08-09T16:19:02.082Z,3.47
2022-08-09T16:21:31.518Z,4.37
2022-08-09T16:24:08.826Z,4.53
2022-08-09T16:26:48.929Z,3.33
2022-08-09T16:29:20.199Z,4.27
2022-08-09T16:32:17.663Z,6.30
2022-08-09T16:34:53.565Z,5.40
2022-08-09T16:37:53.811Z,3.67
2022-08-09T16:40:13.210Z,4.90
2022-08-09T16:42:45.563Z,7.70
2022-08-09T16:45:17.592Z,6.47
2022-08-09T16:48:41.703Z,3.13
2022-08-09T16:50:38.588Z,5.43
2022-08-09T16:53:06.543Z,5.17
2022-08-09T16:55:57.905Z,7.60
2022-08-09T16:58:24.639Z,5.67
2022-08-09T17:00:53.133Z,5.97
2022-08-09T17:03:22.796Z,6.37
2022-08-09T17:06:07.112Z,3.70
2022-08-09T17:08:58.994Z,3.97
2022-08-09T17:11:40.112Z,5.97
2022-08-09T17:14:26.193Z,5.63
2022-08-09T17:17:00.179Z,4.40
2022-08-09T17:20:06.074Z,5.27
2022-08-09T17:22:24.219Z,4.30
2022-08-09T17:24:54.894Z,4.73
2022-08-09T17:27:23.695Z,5.70
2022-08-09T17:29:51.444Z,6.80
2022-08-09T17:32:35.038Z,8.67
2022-08-09T17:35:11.242Z,5.33
2022-08-09T17:38:11.522Z,3.27
2022-08-09T17:40:28.076Z,3.37
2022-08-09T17:42:59.206Z,7.87
2022-08-09T17:46:01.560Z,8.30
2022-08-09T17:48:18.316Z,9.33
2022-08-09T17:50:59.311Z,5.77
2022-08-09T17:53:43.500Z,4.07
2022-08-09T17:56:18.172Z,3.43
2022-08-09T17:58:45.638Z,3.97
2022-08-09T18:01:22.138Z,6.27
2022-08-09T18:03:54.324Z,5.97
2022-08-09T18:06:32.495Z,4.73
2022-08-09T18:09:06.077Z,5.33
2022-08-09T18:12:05.409Z,6.63
2022-08-09T18:14:23.065Z,5.30
2022-08-09T18:16:51.055Z,6.37
2022-08-09T18:20:57.017Z,4.23
2022-08-09T18:22:16.899Z,6.43
2022-08-09T18:24:47.881Z,6.27
2022-08-09T18:27:49.068Z,5.47
2022-08-09T18:30:42.346Z,6.70
2022-08-09T18:32:54.619Z,4.40
2022-08-09T18:35:47.913Z,5.87
2022-08-09T18:38:11.761Z,5.83
2022-08-09T18:40:43.050Z,6.83
2022-08-09T18:43:12.919Z,7.30
2022-08-09T18:46:51.209Z,4.87
2022-08-09T18:48:32.684Z,5.30
2022-08-09T18:51:01.384Z,6.67
2022-08-09T18:54:00.972Z,7.80
2022-08-09T18:56:17.104Z,5.57
2022-08-09T18:58:47.728Z,5.57
2022-08-09T19:01:22.864Z,4.47
2022-08-09T19:04:01.858Z,6.00
2022-08-09T19:06:34.640Z,5.20
2022-08-09T19:09:05.259Z,4.57
2022-08-09T19:11:37.606Z,10.37
2022-08-09T19:14:06.891Z,6.00
2022-08-09T19:16:37.841Z,6.77
2022-08-09T19:19:19.235Z,12.03
2022-08-09T19:22:04.546Z,26.20
2022-08-09T19:24:39.725Z,10.43
2022-08-09T19:27:21.915Z,15.37
2022-08-09T19:30:21.589Z,15.83
2022-08-09T19:32:37.101Z,8.17
2022-08-09T19:35:05.467Z,12.30
2022-08-09T19:37:54.033Z,5.40
2022-08-09T19:40:21.269Z,9.17
2022-08-09T19:42:49.648Z,4.87
2022-08-09T19:45:18.585Z,10.63
2022-08-09T19:47:45.907Z,5.83
2022-08-09T19:50:51.006Z,4.40
2022-08-09T19:53:04.009Z,4.33
2022-08-09T19:56:03.476Z,6.20
2022-08-09T19:58:30.193Z,9.23
2022-08-09T20:00:58.426Z,4.87
2022-08-09T20:04:18.583Z,10.80
2022-08-09T20:06:23.909Z,10.73
2022-08-09T20:08:57.706Z,5.73
2022-08-09T20:11:42.902Z,7.90
2022-08-09T20:14:15.175Z,6.10
2022-08-09T20:16:49.944Z,7.73
2022-08-09T20:19:42.234Z,6.97
2022-08-09T20:22:10.253Z,22.97
2022-08-09T20:24:42.390Z,7.43
2022-08-09T20:27:11.671Z,5.90
2022-08-09T20:29:41.157Z,12.10
2022-08-09T20:32:31.022Z,14.33
2022-08-09T20:34:59.294Z,5.70
2022-08-09T20:38:18.594Z,6.27
2022-08-09T20:40:18.393Z,5.97
2022-08-09T20:42:59.425Z,8.00
2022-08-09T20:45:59.070Z,7.13
2022-08-09T20:48:15.804Z,8.97
2022-08-09T20:50:51.153Z,5.20
2022-08-09T20:53:37.095Z,6.47
2022-08-09T20:56:20.517Z,7.63
2022-08-09T20:58:50.484Z,8.73
2022-08-09T21:01:34.696Z,6.83
2022-08-09T21:05:54.481Z,4.30
2022-08-09T21:06:56.624Z,11.37
2022-08-09T21:09:32.608Z,9.67
2022-08-09T21:14:41.809Z,5.83
2022-08-09T21:18:21.642Z,4.17
2022-08-09T21:20:17.721Z,11.37
2022-08-09T21:22:52.706Z,4.57
2022-08-09T21:25:44.461Z,6.67
2022-08-09T21:28:34.247Z,4.30
2022-08-09T21:31:17.186Z,7.17
2022-08-09T21:33:52.384Z,5.00
2022-08-09T21:36:28.158Z,5.57
2022-08-09T21:39:00.030Z,8.00
2022-08-09T21:42:04.827Z,6.23
2022-08-09T21:44:34.197Z,4.33
2022-08-09T21:47:09.737Z,5.93
2022-08-09T21:49:39.589Z,6.07
2022-08-09T21:52:17.584Z,5.70
2022-08-09T21:55:03.427Z,7.60
2022-08-09T21:57:39.560Z,6.60
2022-08-09T22:00:33.232Z,4.20
2022-08-09T22:03:07.047Z,7.20
2022-08-09T22:05:37.407Z,8.37
2022-08-09T22:08:14.680Z,8.10
2022-08-09T22:11:05.129Z,7.30
2022-08-09T22:13:36.659Z,5.53
2022-08-09T22:16:07.562Z,7.07
2022-08-09T22:18:53.236Z,8.23
2022-08-09T22:21:24.820Z,10.47
2022-08-09T22:23:59.847Z,5.77
2022-08-09T22:26:38.102Z,8.60
2022-08-09T22:29:09.205Z,5.40
2022-08-09T22:31:50.357Z,7.47
2022-08-09T22:34:26.307Z,7.70
2022-08-09T22:36:59.138Z,6.27
2022-08-09T22:39:57.501Z,5.07
2022-08-09T22:42:21.430Z,5.10
2022-08-09T22:45:18.472Z,9.23
2022-08-09T22:48:17.011Z,6.30
2022-08-09T22:50:31.644Z,5.53
2022-08-09T22:53:03.506Z,6.87
2022-08-09T22:56:06.679Z,4.70
2022-08-09T22:58:20.433Z,7.57
2022-08-09T23:01:05.644Z,4.40
2022-08-09T23:04:05.783Z,7.23
2022-08-09T23:06:35.005Z,5.67
2022-08-09T23:09:05.009Z,9.53
2022-08-09T23:11:32.473Z,4.43
2022-08-09T23:14:00.907Z,7.50
2022-08-09T23:16:28.162Z,5.77
2022-08-09T23:18:55.357Z,7.80
2022-08-09T23:21:25.314Z,8.67
2022-08-09T23:24:05.181Z,6.67
2022-08-09T23:26:37.185Z,6.10
2022-08-09T23:29:06.165Z,11.20
2022-08-09T23:31:34.258Z,5.13
2022-08-09T23:34:04.691Z,7.40
2022-08-09T23:36:32.665Z,7.77
2022-08-09T23:39:00.239Z,5.03
2022-08-09T23:41:29.496Z,10.60
2022-08-09T23:44:01.707Z,6.63
2022-08-09T23:46:30.511Z,6.43
2022-08-09T23:48:59.328Z,4.83
2022-08-09T23:51:27.445Z,6.53
2022-08-09T23:54:03.249Z,5.80
2022-08-09T23:56:52.029Z,6.77
2022-08-09T23:59:20.836Z,10.23
